Time;durP1;ratioP1;P1;durP2;ratioP2;P2;SDS_P1;SDS_P2;PMS_P1;PMS_P2;Temp;Humidity;BMP_temperature;BMP_pressure;BME280_temperature;BME280_humidity;BME280_pressure;Samples;Min_cycle;Max_cycle;Signal;HPM_P1;HPM_P2
2022/02/22 00:00:52;;;;;;;5.60;1.58;;;;;;;-146.05;100.00;59461.22;5039490;28;20057;-79
2022/02/22 00:03:19;;;;;;;6.13;1.20;;;;;;;-146.05;100.00;59461.22;5040143;28;20045;-77
2022/02/22 00:05:48;;;;;;;4.72;1.55;;;;;;;-146.05;100.00;59461.22;5039671;28;20060;-80
2022/02/22 00:08:15;;;;;;;2.35;1.13;;;;;;;-146.05;100.00;59461.22;5040163;28;20057;-80
2022/02/22 00:10:43;;;;;;;4.88;1.38;;;;;;;-146.05;100.00;59461.22;5040162;28;20057;-80
2022/02/22 00:13:10;;;;;;;4.47;1.45;;;;;;;-146.05;100.00;59461.22;5040006;28;20057;-77
2022/02/22 00:15:38;;;;;;;4.40;1.33;;;;;;;-146.05;100.00;59461.22;5040124;28;20081;-78
2022/02/22 00:18:07;;;;;;;4.72;1.35;;;;;;;-146.05;100.00;59461.22;5038560;28;20427;-79
2022/02/22 00:20:35;;;;;;;5.32;1.10;;;;;;;-146.05;100.00;59461.22;5039196;28;20104;-79
2022/02/22 00:23:05;;;;;;;4.88;1.25;;;;;;;-146.05;100.00;59461.22;5038770;28;20049;-78
2022/02/22 00:25:33;;;;;;;5.40;1.10;;;;;;;-146.05;100.00;59461.22;5038885;28;20512;-77
2022/02/22 00:28:00;;;;;;;4.75;1.42;;;;;;;-146.05;100.00;59461.22;5038220;28;20393;-79
2022/02/22 00:30:28;;;;;;;8.88;1.60;;;;;;;-146.05;100.00;59461.22;5038427;28;20053;-77
2022/02/22 00:32:55;;;;;;;3.58;1.20;;;;;;;-146.05;100.00;59461.22;5045555;22;20054;-79
2022/02/22 00:35:24;;;;;;;7.50;2.88;;;;;;;-146.05;100.00;59461.22;4994611;28;20053;-78
2022/02/22 00:37:52;;;;;;;3.50;1.05;;;;;;;-146.05;100.00;59461.22;4993790;28;20061;-78
2022/02/22 00:40:19;;;;;;;7.03;1.45;;;;;;;-146.05;100.00;59461.22;4994908;28;20065;-78
2022/02/22 00:42:50;;;;;;;3.83;1.85;;;;;;;-146.05;100.00;59461.22;4994313;28;20073;-78
2022/02/22 00:45:17;;;;;;;6.15;1.95;;;;;;;-146.05;100.00;59461.22;4994471;28;20047;-78
2022/02/22 00:47:45;;;;;;;2.42;1.40;;;;;;;-146.05;100.00;59461.22;4994137;28;20050;-78
2022/02/22 00:50:13;;;;;;;2.85;1.73;;;;;;;-146.05;100.00;59461.22;4994307;28;20051;-78
2022/02/22 00:52:42;;;;;;;3.85;1.30;;;;;;;-146.05;100.00;59461.22;4994274;28;20147;-78
2022/02/22 00:55:10;;;;;;;7.50;1.38;;;;;;;-146.05;100.00;59461.22;4994315;28;20065;-78
2022/02/22 00:57:41;;;;;;;5.25;1.20;;;;;;;-146.05;100.00;59461.22;4993934;28;20042;-78
2022/02/22 01:00:11;;;;;;;4.30;1.35;;;;;;;-146.05;100.00;59461.22;4994541;28;20058;-78
2022/02/22 01:02:38;;;;;;;2.78;1.02;;;;;;;-146.05;100.00;59461.22;4993891;28;20051;-78
2022/02/22 01:05:07;;;;;;;5.18;2.13;;;;;;;-146.05;100.00;59461.22;4994137;28;20061;-78
2022/02/22 01:07:35;;;;;;;9.95;1.52;;;;;;;-146.05;100.00;59461.22;4994017;28;20069;-78
2022/02/22 01:10:05;;;;;;;5.55;1.13;;;;;;;-146.05;100.00;59461.22;4993784;28;20057;-78
2022/02/22 01:12:33;;;;;;;7.97;2.20;;;;;;;-146.05;100.00;59461.22;4993892;28;20054;-78
2022/02/22 01:15:00;;;;;;;4.45;1.55;;;;;;;-146.05;100.00;59461.22;4994090;28;20054;-79
2022/02/22 01:17:28;;;;;;;5.63;1.52;;;;;;;-146.05;100.00;59461.22;4993420;28;20137;-78
2022/02/22 01:19:55;;;;;;;3.45;1.02;;;;;;;-146.05;100.00;59461.22;4993886;28;20534;-79
2022/02/22 01:22:23;;;;;;;6.35;1.48;;;;;;;-146.05;100.00;59461.22;4992438;28;20050;-78
2022/02/22 01:24:50;;;;;;;6.15;1.88;;;;;;;-146.05;100.00;59461.22;4994075;28;20054;-79
2022/02/22 01:27:19;;;;;;;5.90;1.13;;;;;;;-146.05;100.00;59461.22;4993392;28;20057;-78
2022/02/22 01:29:47;;;;;;;7.75;1.15;;;;;;;-146.05;100.00;59461.22;4993452;28;20420;-78
2022/02/22 01:32:14;;;;;;;5.45;1.05;;;;;;;-146.05;100.00;59461.22;4993640;28;20250;-79
2022/02/22 01:34:42;;;;;;;4.28;1.35;;;;;;;-146.05;100.00;59461.22;4993503;28;20050;-78
2022/02/22 01:37:09;;;;;;;5.95;1.27;;;;;;;-146.05;100.00;59461.22;4993191;28;20050;-78
2022/02/22 01:39:37;;;;;;;3.83;1.30;;;;;;;-146.05;100.00;59461.22;4993192;28;20050;-78
2022/02/22 01:42:06;;;;;;;7.97;1.40;;;;;;;-146.05;100.00;59461.22;4993241;28;20057;-79
2022/02/22 01:44:35;;;;;;;10.82;1.30;;;;;;;-146.05;100.00;59461.22;4991624;28;20105;-79
2022/02/22 01:47:05;;;;;;;5.25;1.30;;;;;;;-146.05;100.00;59461.22;4992160;28;20101;-79
2022/02/22 01:49:33;;;;;;;8.38;1.90;;;;;;;-146.05;100.00;59461.22;4992214;28;20061;-79
2022/02/22 01:52:02;;;;;;;3.28;1.15;;;;;;;-146.05;100.00;59461.22;4993167;28;20053;-79
2022/02/22 01:54:30;;;;;;;4.78;1.50;;;;;;;-146.05;100.00;59461.22;4993406;28;20432;-78
2022/02/22 01:56:58;;;;;;;6.13;1.50;;;;;;;-146.05;100.00;59461.22;4993000;28;20054;-79
2022/02/22 01:59:25;;;;;;;7.07;1.35;;;;;;;-146.05;100.00;59461.22;4993695;28;20480;-78
2022/02/22 02:01:55;;;;;;;3.58;1.58;;;;;;;-146.05;100.00;59461.22;4993681;28;20053;-78
2022/02/22 02:04:28;;;;;;;8.82;1.42;;;;;;;-146.05;100.00;59461.22;4986340;28;20049;-78
2022/02/22 02:06:56;;;;;;;6.30;1.52;;;;;;;-146.05;100.00;59461.22;4975175;28;20042;-78
2022/02/22 02:09:24;;;;;;;6.53;1.42;;;;;;;-146.05;100.00;59461.22;4989929;28;20419;-78
2022/02/22 02:11:55;;;;;;;4.32;1.33;;;;;;;-146.05;100.00;59461.22;5013262;28;20428;-78
2022/02/22 02:14:24;;;;;;;6.20;1.83;;;;;;;-146.05;100.00;59461.22;5012763;28;20054;-78
2022/02/22 02:16:52;;;;;;;4.32;1.33;;;;;;;-146.05;100.00;59461.22;5012615;28;20419;-79
2022/02/22 02:19:21;;;;;;;6.93;1.63;;;;;;;-146.05;100.00;59461.22;5012774;28;20076;-78
2022/02/22 02:21:49;;;;;;;2.85;0.88;;;;;;;-146.05;100.00;59461.22;5012812;28;20053;-78
2022/02/22 02:24:21;;;;;;;7.72;1.15;;;;;;;-146.05;100.00;59461.22;5014580;28;20144;-78
2022/02/22 02:26:50;;;;;;;7.53;1.15;;;;;;;-146.05;100.00;59461.22;5016135;28;20053;-78
2022/02/22 02:29:21;;;;;;;6.95;1.38;;;;;;;-146.05;100.00;59461.22;5016455;28;20112;-78
2022/02/22 02:31:51;;;;;;;10.55;2.05;;;;;;;-146.05;100.00;59461.22;5016536;28;20060;-78
2022/02/22 02:34:22;;;;;;;5.53;1.20;;;;;;;-146.05;100.00;59461.22;5016490;28;20058;-78
2022/02/22 02:36:50;;;;;;;9.43;1.98;;;;;;;-146.05;100.00;59461.22;5016154;28;20112;-78
2022/02/22 02:39:19;;;;;;;5.32;1.65;;;;;;;-146.05;100.00;59461.22;5016404;28;20058;-78
2022/02/22 02:41:47;;;;;;;8.45;2.30;;;;;;;-146.05;100.00;59461.22;5016447;28;20054;-78
2022/02/22 02:44:17;;;;;;;8.23;2.10;;;;;;;-146.05;100.00;59461.22;5016373;28;20057;-78
2022/02/22 02:46:45;;;;;;;7.78;1.63;;;;;;;-146.05;100.00;59461.22;5016167;28;20404;-77
2022/02/22 02:49:14;;;;;;;5.50;1.23;;;;;;;-146.05;100.00;59461.22;5015970;28;20132;-78
2022/02/22 02:51:42;;;;;;;8.30;1.83;;;;;;;-146.05;100.00;59461.22;5016104;28;20400;-78
2022/02/22 02:54:11;;;;;;;10.18;1.58;;;;;;;-146.05;100.00;59461.22;5015838;28;20061;-78
2022/02/22 02:56:40;;;;;;;8.07;1.83;;;;;;;-146.05;100.00;59461.22;5015717;28;20041;-78
2022/02/22 02:59:10;;;;;;;6.35;1.75;;;;;;;-146.05;100.00;59461.22;5016063;28;20049;-78
2022/02/22 03:01:41;;;;;;;4.35;1.42;;;;;;;-146.05;100.00;59461.22;5015934;28;20495;-78
2022/02/22 03:04:09;;;;;;;9.27;1.83;;;;;;;-146.05;100.00;59461.22;5015761;28;20046;-78
2022/02/22 03:06:36;;;;;;;11.68;3.45;;;;;;;-146.05;100.00;59461.22;5015445;28;20050;-78
2022/02/22 03:09:05;;;;;;;5.32;1.48;;;;;;;-146.05;100.00;59461.22;5016244;28;20050;-78
2022/02/22 03:11:33;;;;;;;7.70;1.33;;;;;;;-146.05;100.00;59461.22;5015999;28;20500;-78
2022/02/22 03:14:02;;;;;;;6.65;1.30;;;;;;;-146.05;100.00;59461.22;5015616;28;20049;-78
2022/02/22 03:16:30;;;;;;;3.90;1.05;;;;;;;-146.05;100.00;59461.22;5015087;28;20558;-78
2022/02/22 03:18:57;;;;;;;5.80;1.80;;;;;;;-146.05;100.00;59461.22;5015125;28;20061;-78
2022/02/22 03:21:25;;;;;;;8.82;1.40;;;;;;;-146.05;100.00;59461.22;5015581;28;20061;-78
2022/02/22 03:23:52;;;;;;;3.90;1.40;;;;;;;-146.05;100.00;59461.22;5015721;28;20054;-78
2022/02/22 03:26:20;;;;;;;6.30;1.58;;;;;;;-146.05;100.00;59461.22;5015136;28;20056;-78
2022/02/22 03:28:47;;;;;;;9.52;1.60;;;;;;;-146.05;100.00;59461.22;5015368;28;20050;-78
2022/02/22 03:31:16;;;;;;;4.80;1.70;;;;;;;-146.05;100.00;59461.22;5015602;28;20046;-78
2022/02/22 03:33:44;;;;;;;6.07;1.45;;;;;;;-146.05;100.00;59461.22;5014812;28;20046;-78
2022/02/22 03:36:12;;;;;;;3.65;1.02;;;;;;;-146.05;100.00;59461.22;5015019;28;20054;-78
2022/02/22 03:38:39;;;;;;;6.63;1.73;;;;;;;-146.05;100.00;59461.22;5015185;28;20042;-78
2022/02/22 03:41:07;;;;;;;4.03;1.25;;;;;;;-146.05;100.00;59461.22;5015072;28;20054;-78
2022/02/22 03:43:34;;;;;;;5.85;1.20;;;;;;;-146.05;100.00;59461.22;5015232;28;20045;-78
2022/02/22 03:46:02;;;;;;;3.70;0.90;;;;;;;-146.05;100.00;59461.22;5014689;28;20057;-78
2022/02/22 03:48:31;;;;;;;5.63;0.82;;;;;;;-146.05;100.00;59461.22;5014878;28;20069;-78
2022/02/22 03:50:58;;;;;;;4.97;1.20;;;;;;;-146.05;100.00;59461.22;5014956;28;20057;-78
2022/02/22 03:53:26;;;;;;;6.13;1.73;;;;;;;-146.05;100.00;59461.22;5014851;28;20053;-78
2022/02/22 03:55:54;;;;;;;2.88;0.90;;;;;;;-146.05;100.00;59461.22;5014759;28;20065;-78
2022/02/22 03:58:22;;;;;;;9.77;1.02;;;;;;;-146.05;100.00;59461.22;5014521;28;20401;-78
2022/02/22 04:00:49;;;;;;;5.40;0.95;;;;;;;-146.05;100.00;59461.22;5014529;28;20049;-78
2022/02/22 04:03:17;;;;;;;4.47;1.30;;;;;;;-146.05;100.00;59461.22;5014707;28;20541;-78
2022/02/22 04:05:47;;;;;;;6.78;1.42;;;;;;;-146.05;100.00;59461.22;5014645;28;20420;-78
2022/02/22 04:08:15;;;;;;;4.45;1.30;;;;;;;-146.05;100.00;59461.22;5014685;28;20046;-78
2022/02/22 04:10:45;;;;;;;4.95;1.20;;;;;;;-146.05;100.00;59461.22;5014737;28;20054;-78
2022/02/22 04:13:13;;;;;;;7.68;1.33;;;;;;;-146.05;100.00;59461.22;5014112;28;20488;-78
2022/02/22 04:15:41;;;;;;;6.43;1.70;;;;;;;-146.05;100.00;59461.22;5014410;28;20050;-78
2022/02/22 04:18:09;;;;;;;5.35;1.10;;;;;;;-146.05;100.00;59461.22;5013901;28;20086;-78
2022/02/22 04:20:36;;;;;;;4.95;1.67;;;;;;;-146.05;100.00;59461.22;5014373;28;20046;-78
2022/02/22 04:23:05;;;;;;;5.63;1.33;;;;;;;-146.05;100.00;59461.22;5014671;28;20050;-78
2022/02/22 04:25:33;;;;;;;5.57;1.33;;;;;;;-146.05;100.00;59461.22;5014206;28;20431;-78
2022/02/22 04:28:00;;;;;;;3.80;1.30;;;;;;;-146.05;100.00;59461.22;5014130;28;20057;-78
2022/02/22 04:30:28;;;;;;;6.80;1.17;;;;;;;-146.05;100.00;59461.22;5014377;28;20506;-78
2022/02/22 04:32:59;;;;;;;6.03;1.40;;;;;;;-146.05;100.00;59461.22;5014163;28;20470;-77
2022/02/22 04:35:27;;;;;;;7.53;2.00;;;;;;;-146.05;100.00;59461.22;5014001;28;20054;-78
2022/02/22 04:37:54;;;;;;;5.53;1.30;;;;;;;-146.05;100.00;59461.22;5013379;28;20065;-78
2022/02/22 04:40:23;;;;;;;10.40;1.75;;;;;;;-146.05;100.00;59461.22;5013543;28;20530;-78
2022/02/22 04:42:53;;;;;;;8.38;1.77;;;;;;;-146.05;100.00;59461.22;5013946;28;20140;-78
2022/02/22 04:45:21;;;;;;;7.65;1.70;;;;;;;-146.05;100.00;59461.22;5013949;28;20042;-78
2022/02/22 04:47:48;;;;;;;5.10;1.25;;;;;;;-146.05;100.00;59461.22;5020224;28;20137;-78
2022/02/22 04:50:17;;;;;;;6.32;1.40;;;;;;;-146.05;100.00;59461.22;5029427;28;20056;-78
2022/02/22 04:52:44;;;;;;;6.55;1.95;;;;;;;-146.05;100.00;59461.22;5020058;28;20057;-78
2022/02/22 04:55:12;;;;;;;7.15;1.73;;;;;;;-146.05;100.00;59461.22;5014341;28;20046;-78
2022/02/22 04:57:41;;;;;;;5.75;1.70;;;;;;;-146.05;100.00;59461.22;5025286;28;20046;-78
2022/02/22 05:00:13;;;;;;;6.28;1.60;;;;;;;-146.05;100.00;59461.22;5026259;28;20045;-78
2022/02/22 05:02:41;;;;;;;4.65;1.10;;;;;;;-146.05;100.00;59461.22;5019733;28;20058;-78
2022/02/22 05:05:09;;;;;;;7.15;1.85;;;;;;;-146.05;100.00;59461.22;5018955;28;20531;-78
2022/02/22 05:07:37;;;;;;;3.15;1.38;;;;;;;-146.05;100.00;59461.22;5018145;28;20076;-78
2022/02/22 05:10:05;;;;;;;8.55;2.55;;;;;;;-146.05;100.00;59461.22;5018052;28;20427;-78
2022/02/22 05:12:33;;;;;;;3.47;1.52;;;;;;;-146.05;100.00;59461.22;5016648;28;20072;-78
2022/02/22 05:15:05;;;;;;;5.60;1.58;;;;;;;-146.05;100.00;59461.22;5016637;28;20116;-78
2022/02/22 05:17:33;;;;;;;7.10;1.50;;;;;;;-146.05;100.00;59461.22;5014973;28;20077;-78
2022/02/22 05:20:01;;;;;;;3.42;1.38;;;;;;;-146.05;100.00;59461.22;5014646;28;20050;-77
2022/02/22 05:22:28;;;;;;;8.30;2.03;;;;;;;-146.05;100.00;59461.22;5014154;28;20045;-78
2022/02/22 05:24:56;;;;;;;7.82;1.80;;;;;;;-146.05;100.00;59461.22;5014204;28;20049;-77
2022/02/22 05:27:23;;;;;;;10.10;1.80;;;;;;;-146.05;100.00;59461.22;5013752;28;20112;-78
2022/02/22 05:29:51;;;;;;;8.80;2.22;;;;;;;-146.05;100.00;59461.22;5013469;28;20049;-77
2022/02/22 05:32:20;;;;;;;7.35;1.80;;;;;;;-146.05;100.00;59461.22;5013129;28;20054;-78
2022/02/22 05:34:47;;;;;;;9.10;2.00;;;;;;;-146.05;100.00;59461.22;5013807;28;20062;-78
2022/02/22 05:37:15;;;;;;;6.20;1.67;;;;;;;-146.05;100.00;59461.22;5014097;28;20049;-78
2022/02/22 05:39:43;;;;;;;5.90;2.40;;;;;;;-146.05;100.00;59461.22;5013916;28;20424;-80
2022/02/22 05:42:10;;;;;;;5.47;1.83;;;;;;;-146.05;100.00;59461.22;5013979;28;20141;-80
2022/02/22 05:44:38;;;;;;;10.48;2.03;;;;;;;-146.05;100.00;59461.22;5014464;28;20050;-79
2022/02/22 05:47:06;;;;;;;4.68;1.67;;;;;;;-146.05;100.00;59461.22;5013604;28;20050;-78
2022/02/22 05:49:35;;;;;;;8.15;1.90;;;;;;;-146.05;100.00;59461.22;5014151;28;20428;-78
2022/02/22 05:52:03;;;;;;;6.25;1.65;;;;;;;-146.05;100.00;59461.22;4997664;28;20066;-78
2022/02/22 05:54:30;;;;;;;7.10;1.55;;;;;;;-146.05;100.00;59461.22;4978622;28;20051;-80
2022/02/22 05:56:58;;;;;;;7.65;1.40;;;;;;;-146.05;100.00;59461.22;4975077;28;20061;-78
2022/02/22 05:59:26;;;;;;;5.38;1.92;;;;;;;-146.05;100.00;59461.22;4977775;28;20042;-78
2022/02/22 06:01:53;;;;;;;6.82;2.22;;;;;;;-146.05;100.00;59461.22;4994856;28;20047;-82
2022/02/22 06:04:22;;;;;;;31.20;16.42;;;;;;;-146.05;100.00;59461.22;4996585;28;20057;-80
2022/02/22 06:06:51;;;;;;;9.55;2.67;;;;;;;-146.05;100.00;59461.22;4994138;28;20547;-79
2022/02/22 06:09:19;;;;;;;9.02;3.78;;;;;;;-146.05;100.00;59461.22;4978886;28;20054;-79
2022/02/22 06:11:46;;;;;;;7.80;2.60;;;;;;;-146.05;100.00;59461.22;4975412;28;20076;-79
2022/02/22 06:14:14;;;;;;;8.50;3.00;;;;;;;-146.05;100.00;59461.22;4977230;28;20050;-80
2022/02/22 06:16:41;;;;;;;5.75;2.13;;;;;;;-146.05;100.00;59461.22;4975553;28;20059;-79
2022/02/22 06:19:09;;;;;;;7.28;2.20;;;;;;;-146.05;100.00;59461.22;4973967;28;20444;-79
2022/02/22 06:21:36;;;;;;;8.18;2.20;;;;;;;-146.05;100.00;59461.22;4974852;28;20060;-80
2022/02/22 06:24:06;;;;;;;5.63;1.92;;;;;;;-146.05;100.00;59461.22;4974029;28;20051;-80
2022/02/22 06:26:33;;;;;;;5.32;2.30;;;;;;;-146.05;100.00;59461.22;4989977;28;20129;-78
2022/02/22 06:29:01;;;;;;;5.50;2.20;;;;;;;-146.05;100.00;59461.22;4992964;28;20050;-79
2022/02/22 06:31:28;;;;;;;8.77;1.98;;;;;;;-146.05;100.00;59461.22;4993891;28;20050;-79
2022/02/22 06:33:56;;;;;;;7.95;2.10;;;;;;;-146.05;100.00;59461.22;4993367;28;20500;-79
2022/02/22 06:36:24;;;;;;;10.30;2.20;;;;;;;-146.05;100.00;59461.22;4993015;28;20074;-80
2022/02/22 06:38:52;;;;;;;9.43;2.83;;;;;;;-146.05;100.00;59461.22;4999281;28;20054;-80
2022/02/22 06:43:56;;;;;;;6.47;2.35;;;;;;;-146.05;100.00;59461.22;5936785;22;20060;-78
2022/02/22 06:46:24;;;;;;;14.50;3.53;;;;;;;-146.05;100.00;59461.22;5032067;28;20496;-77
2022/02/22 09:41:20;;;;;;;6.35;2.20;;;;;;;-146.05;100.00;59461.22;6135659;22;20103;-81
2022/02/22 09:43:49;;;;;;;12.68;4.68;;;;;;;-146.05;100.00;59461.22;5041344;28;20102;-80
2022/02/22 09:46:21;;;;;;;6.13;2.38;;;;;;;-146.05;100.00;59461.22;5035542;28;20077;-79
2022/02/22 09:48:49;;;;;;;6.72;2.13;;;;;;;-146.05;100.00;59461.22;5034873;28;20049;-79
2022/02/22 09:51:16;;;;;;;5.72;2.13;;;;;;;-146.05;100.00;59461.22;5033128;28;20054;-79
2022/02/22 09:53:44;;;;;;;7.00;1.88;;;;;;;-146.05;100.00;59461.22;5033389;28;20482;-79
2022/02/22 09:56:15;;;;;;;4.95;1.80;;;;;;;-146.05;100.00;59461.22;5032889;28;20405;-80
2022/02/22 09:58:44;;;;;;;8.80;2.00;;;;;;;-146.05;100.00;59461.22;5033329;28;20056;-78
2022/02/22 10:01:19;;;;;;;8.38;2.25;;;;;;;-146.05;100.00;59461.22;5034035;28;20089;-80
2022/02/22 10:03:58;;;;;;;10.93;2.67;;;;;;;-146.05;100.00;59461.22;5034100;28;20056;-80
2022/02/22 10:06:26;;;;;;;7.53;3.20;;;;;;;-146.05;100.00;59461.22;5032990;28;20049;-79
2022/02/22 10:08:56;;;;;;;10.63;2.95;;;;;;;-146.05;100.00;59461.22;5034147;28;20553;-79
2022/02/22 10:11:24;;;;;;;10.73;3.00;;;;;;;-146.05;100.00;59461.22;5033129;28;20099;-80
2022/02/22 10:13:53;;;;;;;10.00;2.45;;;;;;;-146.05;100.00;59461.22;5033242;28;20427;-80
2022/02/22 10:16:21;;;;;;;5.57;2.50;;;;;;;-146.05;100.00;59461.22;5032599;28;20042;-80
2022/02/22 10:19:09;;;;;;;10.25;2.53;;;;;;;-146.05;100.00;59461.22;5032376;28;20054;-79
2022/02/22 10:21:43;;;;;;;6.72;1.65;;;;;;;-146.05;100.00;59461.22;5032500;28;20136;-79
2022/02/22 10:24:18;;;;;;;6.05;1.45;;;;;;;-146.05;100.00;59461.22;5033081;28;20055;-80
2022/02/22 10:26:48;;;;;;;7.15;2.10;;;;;;;-146.05;100.00;59461.22;5022663;28;20046;-80
2022/02/22 10:29:21;;;;;;;9.18;2.50;;;;;;;-146.05;100.00;59461.22;5013606;28;20546;-79
2022/02/22 10:31:49;;;;;;;7.45;2.25;;;;;;;-146.05;100.00;59461.22;5013864;28;20141;-80
2022/02/22 10:34:16;;;;;;;7.53;2.20;;;;;;;-146.05;100.00;59461.22;5014256;28;20101;-80
2022/02/22 10:36:50;;;;;;;8.55;3.40;;;;;;;-146.05;100.00;59461.22;5014397;28;20050;-79
2022/02/22 10:39:20;;;;;;;5.97;2.08;;;;;;;-146.05;100.00;59461.22;5018205;28;20081;-79
2022/02/22 10:41:48;;;;;;;9.02;2.60;;;;;;;-146.05;100.00;59461.22;5013508;28;20050;-79
2022/02/22 10:44:29;;;;;;;11.45;4.95;;;;;;;-146.05;100.00;59461.22;5013791;28;20050;-79
2022/02/22 10:46:58;;;;;;;26.42;10.57;;;;;;;-146.05;100.00;59461.22;5017744;28;20130;-80
2022/02/22 10:49:32;;;;;;;8.85;3.53;;;;;;;-146.05;100.00;59461.22;5017072;28;20129;-79
2022/02/22 10:52:05;;;;;;;4.55;1.70;;;;;;;-146.05;100.00;59461.22;5017541;28;20496;-79
2022/02/22 10:54:33;;;;;;;7.25;2.03;;;;;;;-146.05;100.00;59461.22;5017634;28;20058;-78
2022/02/22 10:57:01;;;;;;;10.18;2.03;;;;;;;-146.05;100.00;59461.22;5017087;28;20471;-80
2022/02/22 10:59:32;;;;;;;5.70;1.90;;;;;;;-146.05;100.00;59461.22;5022051;28;20093;-79
2022/02/22 11:02:01;;;;;;;10.13;3.25;;;;;;;-146.05;100.00;59461.22;5039457;28;20069;-79
2022/02/22 11:04:34;;;;;;;8.15;2.30;;;;;;;-146.05;100.00;59461.22;5038928;28;20109;-80
2022/02/22 11:07:04;;;;;;;12.00;3.03;;;;;;;-146.05;100.00;59461.22;5038221;28;20050;-80
2022/02/22 11:09:38;;;;;;;4.03;2.05;;;;;;;-146.05;100.00;59461.22;5031726;28;20050;-80
2022/02/22 11:12:13;;;;;;;7.72;2.63;;;;;;;-146.05;100.00;59461.22;5034350;28;20060;-79
2022/02/22 11:14:42;;;;;;;12.95;3.80;;;;;;;-146.05;100.00;59461.22;5047094;28;20045;-82
2022/02/22 11:42:01;;;;;;;6.70;2.20;;;;;;;-146.05;100.00;59461.22;5101031;22;20966;-81
2022/02/22 11:45:33;;;;;;;9.02;2.03;;;;;;;-146.05;100.00;59461.22;5001331;28;20624;-81
2022/02/22 12:14:10;;;;;;;5.05;1.20;;;;;;;-146.05;100.00;59461.22;5647629;22;20064;-81
2022/02/22 12:42:22;;;;;;;5.90;2.10;;;;;;;-146.05;100.00;59461.22;5467560;22;20071;-92
2022/02/22 12:44:53;;;;;;;10.68;3.03;;;;;;;-146.05;100.00;59461.22;5063732;28;20053;-80
2022/02/22 12:47:21;;;;;;;6.30;2.13;;;;;;;-146.05;100.00;59461.22;5063727;28;20039;-89
2022/02/22 12:49:52;;;;;;;6.40;1.80;;;;;;;-146.05;100.00;59461.22;5072268;28;20068;-90
2022/02/22 12:52:25;;;;;;;7.53;1.70;;;;;;;-146.05;100.00;59461.22;5068761;28;20122;-89
2022/02/22 12:55:17;;;;;;;9.18;2.90;;;;;;;-146.05;100.00;59461.22;5066105;28;20522;-85
2022/02/22 12:57:53;;;;;;;10.55;2.22;;;;;;;-146.05;100.00;59461.22;5069995;28;20036;-88
2022/02/22 13:00:35;;;;;;;9.25;2.63;;;;;;;-146.05;100.00;59461.22;5072624;28;20037;-89
2022/02/22 13:03:16;;;;;;;11.57;2.70;;;;;;;-146.05;100.00;59461.22;5066853;28;20075;-85
2022/02/22 13:05:45;;;;;;;10.43;2.63;;;;;;;-146.05;100.00;59461.22;5047986;28;20061;-82
2022/02/22 13:08:14;;;;;;;8.48;2.80;;;;;;;-146.05;100.00;59461.22;5044620;28;20059;-83
2022/02/22 13:10:45;;;;;;;8.35;2.72;;;;;;;-146.05;100.00;59461.22;5039878;28;20050;-81
2022/02/22 13:13:22;;;;;;;7.85;2.38;;;;;;;-146.05;100.00;59461.22;5050490;28;20060;-82
2022/02/22 13:15:50;;;;;;;14.25;4.88;;;;;;;-146.05;100.00;59461.22;5066994;28;20051;-85
2022/02/22 13:18:23;;;;;;;9.15;3.38;;;;;;;-146.05;100.00;59461.22;5064567;28;20076;-87
2022/02/22 13:20:54;;;;;;;8.65;2.90;;;;;;;-146.05;100.00;59461.22;5069368;28;20490;-84
2022/02/22 13:23:37;;;;;;;8.25;2.20;;;;;;;-146.05;100.00;59461.22;5064788;28;20079;-85
2022/02/22 13:28:58;;;;;;;5.30;1.80;;;;;;;-146.05;100.00;59461.22;5067799;28;20392;-83
2022/02/22 13:31:42;;;;;;;6.00;1.73;;;;;;;-146.05;100.00;59461.22;5068750;28;20060;-87
2022/02/22 13:34:16;;;;;;;5.45;1.65;;;;;;;-146.05;100.00;59461.22;5067360;28;20032;-89
2022/02/22 13:36:56;;;;;;;6.30;1.88;;;;;;;-146.05;100.00;59461.22;5071931;28;20029;-90
2022/02/22 13:39:25;;;;;;;6.30;2.05;;;;;;;-146.05;100.00;59461.22;5077038;28;20033;-89
2022/02/22 13:41:57;;;;;;;7.63;2.10;;;;;;;-146.05;100.00;59461.22;5075532;28;20056;-90
2022/02/22 13:44:39;;;;;;;7.60;1.83;;;;;;;-146.05;100.00;59461.22;5073785;28;20053;-93
2022/02/22 13:47:10;;;;;;;4.85;1.60;;;;;;;-146.05;100.00;59461.22;5068706;28;20045;-88
2022/02/22 13:49:44;;;;;;;10.40;2.40;;;;;;;-146.05;100.00;59461.22;5069864;28;20118;-88
2022/02/22 13:52:13;;;;;;;5.80;2.30;;;;;;;-146.05;100.00;59461.22;5072088;28;20049;-89
2022/02/22 13:54:48;;;;;;;5.40;2.05;;;;;;;-146.05;100.00;59461.22;5064406;28;20053;-89
2022/02/22 13:57:16;;;;;;;7.65;1.75;;;;;;;-146.05;100.00;59461.22;5066411;28;20068;-87
2022/02/22 13:59:46;;;;;;;8.52;2.38;;;;;;;-146.05;100.00;59461.22;5071708;28;20059;-86
2022/02/22 14:02:25;;;;;;;8.13;2.30;;;;;;;-146.05;100.00;59461.22;5069246;28;20049;-90
2022/02/22 14:04:52;;;;;;;7.18;2.00;;;;;;;-146.05;100.00;59461.22;5064112;28;20036;-83
2022/02/22 14:07:20;;;;;;;6.65;2.17;;;;;;;-146.05;100.00;59461.22;5051026;28;20057;-85
2022/02/22 14:09:49;;;;;;;7.72;2.13;;;;;;;-146.05;100.00;59461.22;5047652;28;20051;-84
2022/02/22 14:12:19;;;;;;;5.32;1.77;;;;;;;-146.05;100.00;59461.22;5052689;28;20035;-87
2022/02/22 14:14:48;;;;;;;4.88;1.70;;;;;;;-146.05;100.00;59461.22;5050174;28;20053;-82
2022/02/22 14:17:16;;;;;;;5.68;2.63;;;;;;;-146.05;100.00;59461.22;5043410;28;20055;-88
2022/02/22 14:19:52;;;;;;;7.53;2.05;;;;;;;-146.05;100.00;59461.22;5053134;28;20052;-89
2022/02/22 14:22:29;;;;;;;6.43;1.90;;;;;;;-146.05;100.00;59461.22;5060685;28;20059;-89
2022/02/22 14:24:57;;;;;;;9.07;2.45;;;;;;;-146.05;100.00;59461.22;5060950;28;20033;-87
2022/02/22 14:27:35;;;;;;;7.32;2.10;;;;;;;-146.05;100.00;59461.22;5060002;28;20106;-88
2022/02/22 14:30:14;;;;;;;6.50;1.90;;;;;;;-146.05;100.00;59461.22;5076948;28;20028;-87
2022/02/22 14:32:50;;;;;;;7.45;1.90;;;;;;;-146.05;100.00;59461.22;5062163;28;20040;-89
2022/02/22 14:35:21;;;;;;;8.70;2.67;;;;;;;-146.05;100.00;59461.22;5061387;28;20033;-87
2022/02/22 14:37:49;;;;;;;8.40;2.10;;;;;;;-146.05;100.00;59461.22;5060699;28;20064;-86
2022/02/22 14:40:18;;;;;;;5.50;1.50;;;;;;;-146.05;100.00;59461.22;5061380;28;20030;-88
2022/02/22 14:42:46;;;;;;;6.00;1.80;;;;;;;-146.05;100.00;59461.22;5061018;28;20040;-88
2022/02/22 14:45:25;;;;;;;8.32;2.28;;;;;;;-146.05;100.00;59461.22;5061284;28;20038;-89
2022/02/22 14:47:53;;;;;;;5.85;2.80;;;;;;;-146.05;100.00;59461.22;5060906;28;20033;-88
2022/02/22 14:50:37;;;;;;;7.00;1.70;;;;;;;-146.05;100.00;59461.22;5059887;28;20105;-90
2022/02/22 14:53:06;;;;;;;5.85;1.83;;;;;;;-146.05;100.00;59461.22;5057381;28;20076;-85
2022/02/22 14:55:35;;;;;;;8.32;2.17;;;;;;;-146.05;100.00;59461.22;5053612;28;20122;-89
2022/02/22 14:58:08;;;;;;;7.78;2.03;;;;;;;-146.05;100.00;59461.22;5056267;28;20072;-88
2022/02/22 15:00:38;;;;;;;7.85;1.73;;;;;;;-146.05;100.00;59461.22;5055003;28;20049;-87
2022/02/22 15:03:09;;;;;;;11.40;2.05;;;;;;;-146.05;100.00;59461.22;5057537;28;20300;-88
2022/02/22 15:08:27;;;;;;;4.18;1.70;;;;;;;-146.05;100.00;59461.22;5075614;28;20072;-87
2022/02/22 15:11:00;;;;;;;4.75;1.50;;;;;;;-146.05;100.00;59461.22;5079285;28;20109;-87
2022/02/22 15:13:29;;;;;;;4.85;1.60;;;;;;;-146.05;100.00;59461.22;5079730;28;20045;-84
2022/02/22 15:16:08;;;;;;;8.55;2.08;;;;;;;-146.05;100.00;59461.22;5077208;28;20080;-85
2022/02/22 15:18:53;;;;;;;5.65;1.60;;;;;;;-146.05;100.00;59461.22;5075547;28;20143;-84
2022/02/22 15:21:39;;;;;;;8.63;1.63;;;;;;;-146.05;100.00;59461.22;5073963;28;20049;-86
2022/02/22 15:24:16;;;;;;;6.80;1.67;;;;;;;-146.05;100.00;59461.22;5074013;28;20052;-82
2022/02/22 15:26:45;;;;;;;6.43;1.60;;;;;;;-146.05;100.00;59461.22;5069173;28;20045;-83
2022/02/22 15:29:13;;;;;;;5.38;2.13;;;;;;;-146.05;100.00;59461.22;5071898;28;20418;-84
2022/02/22 15:31:43;;;;;;;6.68;1.88;;;;;;;-146.05;100.00;59461.22;5073868;28;20068;-84
2022/02/22 15:34:10;;;;;;;7.85;2.67;;;;;;;-146.05;100.00;59461.22;5073432;28;20053;-83
2022/02/22 15:36:38;;;;;;;7.95;2.63;;;;;;;-146.05;100.00;59461.22;5072946;28;20055;-85
2022/02/22 15:39:06;;;;;;;6.78;2.58;;;;;;;-146.05;100.00;59461.22;5076614;28;20063;-85